sensor_id;sensor_type;location;lat;lon;timestamp;temperature;humidity
66576;SHT31;53428;47.686;16.584;2022-09-02T00:02:02;15.88;64.79
66576;SHT31;53428;47.686;16.584;2022-09-02T00:07:01;15.92;64.29
66576;SHT31;53428;47.686;16.584;2022-09-02T00:12:01;15.89;64.39
66576;SHT31;53428;47.686;16.584;2022-09-02T00:17:00;15.93;64.04
66576;SHT31;53428;47.686;16.584;2022-09-02T00:22:01;15.92;64.11
66576;SHT31;53428;47.686;16.584;2022-09-02T00:27:01;15.95;63.93
66576;SHT31;53428;47.686;16.584;2022-09-02T00:32:00;15.93;63.76
66576;SHT31;53428;47.686;16.584;2022-09-02T00:37:00;15.85;63.93
66576;SHT31;53428;47.686;16.584;2022-09-02T00:41:59;15.81;63.72
66576;SHT31;53428;47.686;16.584;2022-09-02T00:46:59;15.82;63.72
66576;SHT31;53428;47.686;16.584;2022-09-02T00:52:32;15.83;63.57
66576;SHT31;53428;47.686;16.584;2022-09-02T00:57:36;15.82;63.46
66576;SHT31;53428;47.686;16.584;2022-09-02T01:02:39;15.82;63.32
66576;SHT31;53428;47.686;16.584;2022-09-02T01:07:40;15.77;63.35
66576;SHT31;53428;47.686;16.584;2022-09-02T01:12:42;15.85;62.91
66576;SHT31;53428;47.686;16.584;2022-09-02T01:17:46;15.73;63.14
66576;SHT31;53428;47.686;16.584;2022-09-02T01:22:46;15.81;62.93
66576;SHT31;53428;47.686;16.584;2022-09-02T01:27:47;15.82;62.69
66576;SHT31;53428;47.686;16.584;2022-09-02T01:32:47;15.72;63.04
66576;SHT31;53428;47.686;16.584;2022-09-02T01:37:47;15.65;63.20
66576;SHT31;53428;47.686;16.584;2022-09-02T01:42:47;15.62;63.14
66576;SHT31;53428;47.686;16.584;2022-09-02T01:47:46;15.62;63.35
66576;SHT31;53428;47.686;16.584;2022-09-02T01:52:45;15.58;63.44
66576;SHT31;53428;47.686;16.584;2022-09-02T01:57:45;15.52;63.71
66576;SHT31;53428;47.686;16.584;2022-09-02T02:02:45;15.48;63.74
66576;SHT31;53428;47.686;16.584;2022-09-02T02:07:45;15.45;64.08
66576;SHT31;53428;47.686;16.584;2022-09-02T02:12:44;15.41;64.19
66576;SHT31;53428;47.686;16.584;2022-09-02T02:17:44;15.40;64.01
66576;SHT31;53428;47.686;16.584;2022-09-02T02:22:44;15.38;64.35
66576;SHT31;53428;47.686;16.584;2022-09-02T02:27:44;15.35;64.35
66576;SHT31;53428;47.686;16.584;2022-09-02T02:32:44;15.34;64.47
66576;SHT31;53428;47.686;16.584;2022-09-02T02:37:46;15.28;64.68
66576;SHT31;53428;47.686;16.584;2022-09-02T02:42:48;15.23;64.88
66576;SHT31;53428;47.686;16.584;2022-09-02T02:47:47;15.20;64.91
66576;SHT31;53428;47.686;16.584;2022-09-02T02:52:48;15.10;65.17
66576;SHT31;53428;47.686;16.584;2022-09-02T02:57:49;15.10;65.35
66576;SHT31;53428;47.686;16.584;2022-09-02T03:02:49;15.07;65.45
66576;SHT31;53428;47.686;16.584;2022-09-02T03:07:48;15.02;65.66
66576;SHT31;53428;47.686;16.584;2022-09-02T03:12:48;15.03;65.67
66576;SHT31;53428;47.686;16.584;2022-09-02T03:17:48;15.03;65.87
66576;SHT31;53428;47.686;16.584;2022-09-02T03:22:48;14.92;66.07
66576;SHT31;53428;47.686;16.584;2022-09-02T03:27:49;14.89;66.26
66576;SHT31;53428;47.686;16.584;2022-09-02T03:32:48;14.84;66.48
66576;SHT31;53428;47.686;16.584;2022-09-02T03:37:49;14.80;66.58
66576;SHT31;53428;47.686;16.584;2022-09-02T03:42:49;14.77;66.85
66576;SHT31;53428;47.686;16.584;2022-09-02T03:47:49;14.69;67.08
66576;SHT31;53428;47.686;16.584;2022-09-02T03:52:55;14.68;67.29
66576;SHT31;53428;47.686;16.584;2022-09-02T03:57:54;14.63;67.42
66576;SHT31;53428;47.686;16.584;2022-09-02T04:02:54;14.62;67.75
66576;SHT31;53428;47.686;16.584;2022-09-02T04:07:53;14.56;67.99
66576;SHT31;53428;47.686;16.584;2022-09-02T04:12:54;14.36;68.89
66576;SHT31;53428;47.686;16.584;2022-09-02T04:17:54;14.41;68.68
66576;SHT31;53428;47.686;16.584;2022-09-02T04:22:54;14.35;68.99
66576;SHT31;53428;47.686;16.584;2022-09-02T04:27:54;14.27;69.45
66576;SHT31;53428;47.686;16.584;2022-09-02T04:32:53;14.24;69.54
66576;SHT31;53428;47.686;16.584;2022-09-02T04:37:53;14.31;69.50
66576;SHT31;53428;47.686;16.584;2022-09-02T04:42:52;14.29;69.51
66576;SHT31;53428;47.686;16.584;2022-09-02T04:47:51;14.31;69.53
66576;SHT31;53428;47.686;16.584;2022-09-02T04:52:50;14.28;69.76
66576;SHT31;53428;47.686;16.584;2022-09-02T04:57:50;14.29;69.93
66576;SHT31;53428;47.686;16.584;2022-09-02T05:02:50;14.35;70.10
66576;SHT31;53428;47.686;16.584;2022-09-02T05:07:49;14.22;70.46
66576;SHT31;53428;47.686;16.584;2022-09-02T05:12:48;14.28;70.09
66576;SHT31;53428;47.686;16.584;2022-09-02T05:17:48;14.18;70.47
66576;SHT31;53428;47.686;16.584;2022-09-02T05:22:47;14.20;70.54
66576;SHT31;53428;47.686;16.584;2022-09-02T05:27:48;14.22;70.78
66576;SHT31;53428;47.686;16.584;2022-09-02T05:32:48;14.21;70.77
66576;SHT31;53428;47.686;16.584;2022-09-02T05:37:48;14.17;70.93
66576;SHT31;53428;47.686;16.584;2022-09-02T05:42:47;14.14;71.18
66576;SHT31;53428;47.686;16.584;2022-09-02T05:47:47;14.11;71.48
66576;SHT31;53428;47.686;16.584;2022-09-02T05:52:49;14.10;71.44
66576;SHT31;53428;47.686;16.584;2022-09-02T05:57:49;14.11;71.43
66576;SHT31;53428;47.686;16.584;2022-09-02T06:02:48;14.15;71.44
66576;SHT31;53428;47.686;16.584;2022-09-02T06:07:47;14.28;71.03
66576;SHT31;53428;47.686;16.584;2022-09-02T06:12:47;14.15;71.45
66576;SHT31;53428;47.686;16.584;2022-09-02T06:17:46;14.34;71.02
66576;SHT31;53428;47.686;16.584;2022-09-02T06:22:46;14.17;71.19
66576;SHT31;53428;47.686;16.584;2022-09-02T06:27:46;14.51;70.54
66576;SHT31;53428;47.686;16.584;2022-09-02T06:32:45;14.58;70.06
66576;SHT31;53428;47.686;16.584;2022-09-02T06:37:45;14.51;69.99
66576;SHT31;53428;47.686;16.584;2022-09-02T06:42:44;14.79;69.44
66576;SHT31;53428;47.686;16.584;2022-09-02T06:47:43;14.89;69.16
66576;SHT31;53428;47.686;16.584;2022-09-02T06:52:44;14.89;69.10
66576;SHT31;53428;47.686;16.584;2022-09-02T06:57:43;15.00;68.68
66576;SHT31;53428;47.686;16.584;2022-09-02T07:02:42;15.08;68.21
66576;SHT31;53428;47.686;16.584;2022-09-02T07:08:02;15.10;68.54
66576;SHT31;53428;47.686;16.584;2022-09-02T07:13:01;15.28;68.13
66576;SHT31;53428;47.686;16.584;2022-09-02T07:18:00;15.19;68.06
66576;SHT31;53428;47.686;16.584;2022-09-02T07:22:59;15.47;67.62
66576;SHT31;53428;47.686;16.584;2022-09-02T07:27:59;15.59;66.93
66576;SHT31;53428;47.686;16.584;2022-09-02T07:32:59;15.82;66.46
66576;SHT31;53428;47.686;16.584;2022-09-02T07:37:58;15.96;66.24
66576;SHT31;53428;47.686;16.584;2022-09-02T07:42:57;16.20;65.39
66576;SHT31;53428;47.686;16.584;2022-09-02T07:47:57;16.18;65.54
66576;SHT31;53428;47.686;16.584;2022-09-02T07:52:57;16.18;65.41
66576;SHT31;53428;47.686;16.584;2022-09-02T07:57:57;16.30;65.44
66576;SHT31;53428;47.686;16.584;2022-09-02T08:02:56;16.55;64.52
66576;SHT31;53428;47.686;16.584;2022-09-02T08:07:56;16.72;63.29
66576;SHT31;53428;47.686;16.584;2022-09-02T08:12:59;16.65;62.80
66576;SHT31;53428;47.686;16.584;2022-09-02T08:18:03;16.67;62.55
66576;SHT31;53428;47.686;16.584;2022-09-02T08:23:06;17.01;61.87
66576;SHT31;53428;47.686;16.584;2022-09-02T08:28:06;17.02;61.75
66576;SHT31;53428;47.686;16.584;2022-09-02T08:33:05;17.11;61.73
66576;SHT31;53428;47.686;16.584;2022-09-02T08:38:04;17.23;61.14
66576;SHT31;53428;47.686;16.584;2022-09-02T08:43:17;17.44;60.34
66576;SHT31;53428;47.686;16.584;2022-09-02T08:48:31;17.80;60.23
66576;SHT31;53428;47.686;16.584;2022-09-02T08:53:39;18.08;59.64
66576;SHT31;53428;47.686;16.584;2022-09-02T08:58:49;18.15;58.88
66576;SHT31;53428;47.686;16.584;2022-09-02T09:09:34;18.45;57.92
66576;SHT31;53428;47.686;16.584;2022-09-02T09:14:47;18.37;57.94
66576;SHT31;53428;47.686;16.584;2022-09-02T09:19:51;17.98;58.59
66576;SHT31;53428;47.686;16.584;2022-09-02T09:24:51;18.73;57.25
66576;SHT31;53428;47.686;16.584;2022-09-02T09:29:51;19.36;55.76
66576;SHT31;53428;47.686;16.584;2022-09-02T09:39:50;19.74;55.01
66576;SHT31;53428;47.686;16.584;2022-09-02T09:44:49;19.74;54.83
66576;SHT31;53428;47.686;16.584;2022-09-02T09:56:23;20.28;52.75
66576;SHT31;53428;47.686;16.584;2022-09-02T10:01:33;20.51;52.53
66576;SHT31;53428;47.686;16.584;2022-09-02T10:11:34;20.11;53.42
66576;SHT31;53428;47.686;16.584;2022-09-02T10:16:41;21.06;51.68
66576;SHT31;53428;47.686;16.584;2022-09-02T10:27:13;20.59;52.56
66576;SHT31;53428;47.686;16.584;2022-09-02T10:32:52;21.77;50.70
66576;SHT31;53428;47.686;16.584;2022-09-02T10:49:03;22.54;48.86
66576;SHT31;53428;47.686;16.584;2022-09-02T11:05:02;24.05;46.20
66576;SHT31;53428;47.686;16.584;2022-09-02T11:10:14;24.77;44.79
66576;SHT31;53428;47.686;16.584;2022-09-02T11:15:50;26.31;41.93
66576;SHT31;53428;47.686;16.584;2022-09-02T11:20:57;25.33;43.43
66576;SHT31;53428;47.686;16.584;2022-09-02T11:26:16;27.00;40.88
66576;SHT31;53428;47.686;16.584;2022-09-02T11:31:21;25.90;42.21
66576;SHT31;53428;47.686;16.584;2022-09-02T11:36:24;26.07;41.27
66576;SHT31;53428;47.686;16.584;2022-09-02T11:41:37;26.33;41.10
66576;SHT31;53428;47.686;16.584;2022-09-02T11:52:25;24.60;43.66
66576;SHT31;53428;47.686;16.584;2022-09-02T11:57:26;26.20;41.09
66576;SHT31;53428;47.686;16.584;2022-09-02T12:02:47;26.52;40.73
66576;SHT31;53428;47.686;16.584;2022-09-02T12:07:49;27.29;40.06
66576;SHT31;53428;47.686;16.584;2022-09-02T12:22:57;26.86;40.56
66576;SHT31;53428;47.686;16.584;2022-09-02T12:28:26;27.03;39.90
66576;SHT31;53428;47.686;16.584;2022-09-02T12:33:32;26.21;41.82
66576;SHT31;53428;47.686;16.584;2022-09-02T12:38:39;24.63;43.26
66576;SHT31;53428;47.686;16.584;2022-09-02T12:48:48;28.00;38.38
66576;SHT31;53428;47.686;16.584;2022-09-02T12:53:53;26.79;39.87
66576;SHT31;53428;47.686;16.584;2022-09-02T12:58:54;27.77;39.09
66576;SHT31;53428;47.686;16.584;2022-09-02T13:09:43;26.92;39.43
66576;SHT31;53428;47.686;16.584;2022-09-02T13:36:25;23.14;45.74
66576;SHT31;53428;47.686;16.584;2022-09-02T13:41:30;24.45;43.65
66576;SHT31;53428;47.686;16.584;2022-09-02T13:46:29;25.25;42.43
66576;SHT31;53428;47.686;16.584;2022-09-02T13:51:29;25.85;40.89
66576;SHT31;53428;47.686;16.584;2022-09-02T13:56:28;27.50;37.99
66576;SHT31;53428;47.686;16.584;2022-09-02T14:01:31;25.72;41.50
66576;SHT31;53428;47.686;16.584;2022-09-02T14:06:38;25.51;41.81
66576;SHT31;53428;47.686;16.584;2022-09-02T14:11:42;26.47;39.17
66576;SHT31;53428;47.686;16.584;2022-09-02T14:16:44;26.30;39.56
66576;SHT31;53428;47.686;16.584;2022-09-02T14:21:49;24.94;41.96
66576;SHT31;53428;47.686;16.584;2022-09-02T14:26:51;24.25;43.52
66576;SHT31;53428;47.686;16.584;2022-09-02T14:32:13;23.67;44.41
66576;SHT31;53428;47.686;16.584;2022-09-02T14:37:27;23.63;44.21
66576;SHT31;53428;47.686;16.584;2022-09-02T14:42:27;23.42;45.22
66576;SHT31;53428;47.686;16.584;2022-09-02T14:47:26;23.29;45.22
66576;SHT31;53428;47.686;16.584;2022-09-02T14:52:29;24.02;43.96
66576;SHT31;53428;47.686;16.584;2022-09-02T14:57:31;26.30;39.84
66576;SHT31;53428;47.686;16.584;2022-09-02T15:02:33;24.51;43.09
66576;SHT31;53428;47.686;16.584;2022-09-02T15:07:33;25.17;41.98
66576;SHT31;53428;47.686;16.584;2022-09-02T15:12:46;28.38;36.68
66576;SHT31;53428;47.686;16.584;2022-09-02T15:17:47;28.08;36.84
66576;SHT31;53428;47.686;16.584;2022-09-02T15:22:47;25.49;39.72
66576;SHT31;53428;47.686;16.584;2022-09-02T15:27:46;23.52;43.88
66576;SHT31;53428;47.686;16.584;2022-09-02T15:32:46;22.99;43.08
66576;SHT31;53428;47.686;16.584;2022-09-02T15:37:48;22.37;44.90
66576;SHT31;53428;47.686;16.584;2022-09-02T15:42:48;22.14;46.28
66576;SHT31;53428;47.686;16.584;2022-09-02T15:47:47;22.16;46.09
66576;SHT31;53428;47.686;16.584;2022-09-02T15:52:46;25.03;42.19
66576;SHT31;53428;47.686;16.584;2022-09-02T15:57:46;26.38;40.10
66576;SHT31;53428;47.686;16.584;2022-09-02T16:02:45;27.58;38.16
66576;SHT31;53428;47.686;16.584;2022-09-02T16:07:45;27.80;37.47
66576;SHT31;53428;47.686;16.584;2022-09-02T16:12:46;27.76;37.20
66576;SHT31;53428;47.686;16.584;2022-09-02T16:17:46;28.28;35.87
66576;SHT31;53428;47.686;16.584;2022-09-02T16:22:45;26.68;39.12
66576;SHT31;53428;47.686;16.584;2022-09-02T16:27:46;28.12;36.45
66576;SHT31;53428;47.686;16.584;2022-09-02T16:32:51;25.39;40.17
66576;SHT31;53428;47.686;16.584;2022-09-02T16:37:50;26.71;38.42
66576;SHT31;53428;47.686;16.584;2022-09-02T16:42:51;24.58;42.34
66576;SHT31;53428;47.686;16.584;2022-09-02T16:47:51;22.48;47.44
66576;SHT31;53428;47.686;16.584;2022-09-02T16:52:50;21.38;50.23
66576;SHT31;53428;47.686;16.584;2022-09-02T16:57:49;20.97;51.09
66576;SHT31;53428;47.686;16.584;2022-09-02T17:02:48;20.64;52.14
66576;SHT31;53428;47.686;16.584;2022-09-02T17:07:48;20.35;52.74
66576;SHT31;53428;47.686;16.584;2022-09-02T17:12:47;20.20;53.59
66576;SHT31;53428;47.686;16.584;2022-09-02T17:17:47;19.96;54.03
66576;SHT31;53428;47.686;16.584;2022-09-02T17:22:47;19.67;54.87
66576;SHT31;53428;47.686;16.584;2022-09-02T17:27:46;19.39;56.15
66576;SHT31;53428;47.686;16.584;2022-09-02T17:32:46;19.19;56.60
66576;SHT31;53428;47.686;16.584;2022-09-02T17:37:46;18.93;57.47
66576;SHT31;53428;47.686;16.584;2022-09-02T17:42:46;18.74;57.79
66576;SHT31;53428;47.686;16.584;2022-09-02T17:47:45;18.59;58.43
66576;SHT31;53428;47.686;16.584;2022-09-02T17:52:45;18.46;58.92
66576;SHT31;53428;47.686;16.584;2022-09-02T17:57:52;18.29;59.45
66576;SHT31;53428;47.686;16.584;2022-09-02T18:08:53;17.99;60.03
66576;SHT31;53428;47.686;16.584;2022-09-02T18:13:51;17.84;60.81
66576;SHT31;53428;47.686;16.584;2022-09-02T18:19:11;17.78;60.94
66576;SHT31;53428;47.686;16.584;2022-09-02T18:45:25;17.36;62.20
66576;SHT31;53428;47.686;16.584;2022-09-02T18:50:31;17.37;61.81
66576;SHT31;53428;47.686;16.584;2022-09-02T18:55:37;17.33;61.35
66576;SHT31;53428;47.686;16.584;2022-09-02T19:00:46;17.44;60.83
66576;SHT31;53428;47.686;16.584;2022-09-02T19:05:48;17.53;60.34
66576;SHT31;53428;47.686;16.584;2022-09-02T19:10:47;17.60;60.55
66576;SHT31;53428;47.686;16.584;2022-09-02T19:15:47;17.29;61.99
66576;SHT31;53428;47.686;16.584;2022-09-02T19:20:46;17.05;63.88
66576;SHT31;53428;47.686;16.584;2022-09-02T19:25:46;16.85;64.70
66576;SHT31;53428;47.686;16.584;2022-09-02T19:30:52;16.72;64.95
66576;SHT31;53428;47.686;16.584;2022-09-02T19:35:52;16.71;64.75
66576;SHT31;53428;47.686;16.584;2022-09-02T19:40:52;16.79;64.67
66576;SHT31;53428;47.686;16.584;2022-09-02T19:45:51;16.74;64.18
66576;SHT31;53428;47.686;16.584;2022-09-02T19:50:51;16.65;64.23
66576;SHT31;53428;47.686;16.584;2022-09-02T19:55:50;16.50;64.59
66576;SHT31;53428;47.686;16.584;2022-09-02T20:00:49;16.34;65.21
66576;SHT31;53428;47.686;16.584;2022-09-02T20:05:50;16.31;65.38
66576;SHT31;53428;47.686;16.584;2022-09-02T20:10:54;16.21;65.67
66576;SHT31;53428;47.686;16.584;2022-09-02T20:15:55;16.06;65.85
66576;SHT31;53428;47.686;16.584;2022-09-02T20:20:56;15.99;66.28
66576;SHT31;53428;47.686;16.584;2022-09-02T20:47:45;15.95;66.56
66576;SHT31;53428;47.686;16.584;2022-09-02T20:53:30;15.86;66.86
66576;SHT31;53428;47.686;16.584;2022-09-02T20:58:46;15.69;67.56
66576;SHT31;53428;47.686;16.584;2022-09-02T21:04:01;15.57;68.28
66576;SHT31;53428;47.686;16.584;2022-09-02T21:09:24;15.40;68.89
66576;SHT31;53428;47.686;16.584;2022-09-02T21:14:37;15.38;69.01
66576;SHT31;53428;47.686;16.584;2022-09-02T21:20:03;15.44;69.28
66576;SHT31;53428;47.686;16.584;2022-09-02T21:25:08;15.30;69.43
66576;SHT31;53428;47.686;16.584;2022-09-02T21:30:12;15.07;70.25
66576;SHT31;53428;47.686;16.584;2022-09-02T21:35:27;14.87;71.05
66576;SHT31;53428;47.686;16.584;2022-09-02T21:51:37;15.08;71.10
66576;SHT31;53428;47.686;16.584;2022-09-02T21:56:47;15.10;71.43
66576;SHT31;53428;47.686;16.584;2022-09-02T22:02:07;14.94;72.50
66576;SHT31;53428;47.686;16.584;2022-09-02T22:07:36;14.92;72.56
66576;SHT31;53428;47.686;16.584;2022-09-02T22:12:41;14.80;72.60
66576;SHT31;53428;47.686;16.584;2022-09-02T22:17:51;14.61;73.59
66576;SHT31;53428;47.686;16.584;2022-09-02T22:23:21;14.65;73.60
66576;SHT31;53428;47.686;16.584;2022-09-02T22:28:33;14.56;74.12
66576;SHT31;53428;47.686;16.584;2022-09-02T22:33:36;14.39;74.66
66576;SHT31;53428;47.686;16.584;2022-09-02T22:38:47;14.32;75.00
66576;SHT31;53428;47.686;16.584;2022-09-02T22:44:06;14.24;75.55
66576;SHT31;53428;47.686;16.584;2022-09-02T22:49:14;14.36;75.70
66576;SHT31;53428;47.686;16.584;2022-09-02T22:54:33;14.24;75.82
66576;SHT31;53428;47.686;16.584;2022-09-02T23:10:47;14.18;76.58
66576;SHT31;53428;47.686;16.584;2022-09-02T23:16:02;14.00;77.10
66576;SHT31;53428;47.686;16.584;2022-09-02T23:21:16;13.96;77.13
66576;SHT31;53428;47.686;16.584;2022-09-02T23:26:52;13.94;77.40
66576;SHT31;53428;47.686;16.584;2022-09-02T23:42:38;13.71;78.67
66576;SHT31;53428;47.686;16.584;2022-09-02T23:53:18;13.76;78.89
66576;SHT31;53428;47.686;16.584;2022-09-02T23:58:33;13.81;79.12
